Aviation Digital Data Service (ADDS)

Output produced by METARs form (2211 UTC 18 October 2017)
found at http://www.aviationweather.gov/adds/metars/
 
METAR text: KGYI 182155Z AUTO 15009KT 10SM CLR 25/06 A3008 RMK AO2 T02540055
Conditions at: KGYI (SHERMAN/DENISON , TX, US) observed 2155 UTC 18 October 2017
Temperature: 25.4°C (78°F)
Dewpoint: 5.5°C (42°F) [RH = 28%]
Pressure (altimeter): 30.08 inches Hg (1018.7 mb)
Winds: from the SSE (150 degrees) at 10 MPH (9 knots; 4.7 m/s)
Visibility: 10 or more miles (16+ km)
Ceiling: at least 12,000 feet AGL
Clouds: sky clear below 12,000 feet AGL
Weather: automated observation with no human augmentation;
there may or may not be significant weather present at this time